createdAt,value
2018-10-02T00:00:04.055Z,101213.64
2018-10-02T00:02:32.212Z,101213.56
2018-10-02T00:05:00.497Z,101208.52
2018-10-02T00:07:28.674Z,101211.61
2018-10-02T00:09:56.772Z,101216.45
2018-10-02T00:12:30.318Z,101210.81
2018-10-02T00:14:58.476Z,101217.02
2018-10-02T00:17:26.688Z,101216.71
2018-10-02T00:19:55.716Z,101226.23
2018-10-02T00:22:23.907Z,101223.98
2018-10-02T00:24:52.025Z,101229.39
2018-10-02T00:27:20.167Z,101225.03
2018-10-02T00:29:48.289Z,101220.67
2018-10-02T00:32:16.612Z,101222.20
2018-10-02T00:34:44.567Z,101221.10
2018-10-02T00:37:12.765Z,101222.89
2018-10-02T00:39:40.962Z,101223.21
2018-10-02T00:42:09.501Z,101214.17
2018-10-02T00:44:37.639Z,101218.70
2018-10-02T00:47:05.834Z,101220.47
2018-10-02T00:49:33.976Z,101223.21
2018-10-02T00:52:02.135Z,101223.13
2018-10-02T00:54:30.308Z,101227.88
2018-10-02T00:56:58.586Z,101225.61
2018-10-02T00:59:26.743Z,101228.20
2018-10-02T01:01:54.916Z,101232.89
2018-10-02T01:04:23.040Z,101230.78
2018-10-02T01:06:51.177Z,101232.58
2018-10-02T01:09:19.302Z,101231.66
2018-10-02T01:11:47.423Z,101227.63
2018-10-02T01:14:15.559Z,101234.15
2018-10-02T01:16:43.746Z,101222.77
2018-10-02T01:19:11.929Z,101235.63
2018-10-02T01:21:40.124Z,101235.59
2018-10-02T01:24:08.289Z,101231.88
2018-10-02T01:26:36.563Z,101238.22
2018-10-02T01:29:04.719Z,101234.15
2018-10-02T01:31:33.015Z,101241.33
2018-10-02T01:34:01.172Z,101234.77
2018-10-02T01:36:29.319Z,101228.16
2018-10-02T01:38:57.463Z,101234.52
2018-10-02T01:41:25.605Z,101232.19
2018-10-02T01:43:53.715Z,101232.28
2018-10-02T01:46:21.865Z,101227.49
2018-10-02T01:48:49.975Z,101231.05
2018-10-02T01:51:18.195Z,101232.41
2018-10-02T01:53:46.418Z,101228.22
2018-10-02T01:56:14.688Z,101231.41
2018-10-02T01:58:42.857Z,101230.89
2018-10-02T02:01:10.985Z,101231.82
2018-10-02T02:03:39.282Z,101232.50
2018-10-02T02:06:07.595Z,101235.19
2018-10-02T02:08:35.835Z,101234.09
2018-10-02T02:11:04.045Z,101240.09
2018-10-02T02:13:32.279Z,101233.73
2018-10-02T02:16:00.469Z,101240.77
2018-10-02T02:18:28.835Z,101241.34
2018-10-02T02:20:57.273Z,101239.31
2018-10-02T02:23:25.453Z,101238.94
2018-10-02T02:25:53.625Z,101241.48
2018-10-02T02:28:21.973Z,101234.63
2018-10-02T02:30:50.389Z,101244.00
2018-10-02T02:33:18.511Z,101241.78
2018-10-02T02:35:47.231Z,101244.05
2018-10-02T02:38:15.353Z,101242.76
2018-10-02T02:40:43.616Z,101241.78
2018-10-02T02:43:11.779Z,101247.66
2018-10-02T02:45:40.723Z,101243.12
2018-10-02T02:48:14.299Z,101245.70
2018-10-02T02:50:50.631Z,101252.05
2018-10-02T02:53:18.971Z,101251.01
2018-10-02T02:55:47.745Z,101249.38
2018-10-02T02:58:15.839Z,101247.85
2018-10-02T03:00:43.993Z,101243.26
2018-10-02T03:03:12.089Z,101247.59
2018-10-02T03:05:40.327Z,101248.61
2018-10-02T03:08:08.437Z,101247.52
2018-10-02T03:10:36.571Z,101240.05
2018-10-02T03:13:04.715Z,101242.63
2018-10-02T03:15:32.950Z,101245.64
2018-10-02T03:18:01.409Z,101250.09
2018-10-02T03:20:29.681Z,101246.67
2018-10-02T03:22:57.928Z,101243.82
2018-10-02T03:25:26.135Z,101245.88
2018-10-02T03:27:54.275Z,101238.92
2018-10-02T03:30:22.461Z,101236.80
2018-10-02T03:32:50.686Z,101234.66
2018-10-02T03:35:18.822Z,101238.70
2018-10-02T03:37:47.043Z,101249.63
2018-10-02T03:40:15.172Z,101245.69
2018-10-02T03:42:43.855Z,101243.92
2018-10-02T03:45:11.971Z,101250.20
2018-10-02T03:47:40.198Z,101241.91
2018-10-02T03:50:08.378Z,101238.14
2018-10-02T03:52:36.663Z,101243.82
2018-10-02T03:55:05.669Z,101239.78
2018-10-02T03:57:33.841Z,101242.41
2018-10-02T04:00:01.990Z,101251.67
2018-10-02T04:02:30.156Z,101235.33
2018-10-02T04:04:58.281Z,101242.54
2018-10-02T04:07:26.430Z,101238.36
2018-10-02T04:09:54.537Z,101238.05
2018-10-02T04:12:22.763Z,101248.86
2018-10-02T04:14:50.968Z,101241.62
2018-10-02T04:17:19.332Z,101247.32
2018-10-02T04:19:47.457Z,101240.41
2018-10-02T04:22:15.707Z,101240.15
2018-10-02T04:24:44.110Z,101251.70
2018-10-02T04:27:12.955Z,101252.25
2018-10-02T04:29:41.123Z,101252.42
2018-10-02T04:32:09.265Z,101246.85
2018-10-02T04:34:37.475Z,101249.50
2018-10-02T04:37:05.829Z,101245.87
2018-10-02T04:39:34.058Z,101251.74
2018-10-02T04:42:02.199Z,101257.89
2018-10-02T04:44:30.376Z,101252.59
2018-10-02T04:47:05.482Z,101259.63
2018-10-02T04:49:33.673Z,101266.17
2018-10-02T04:52:01.815Z,101266.08
2018-10-02T04:54:30.001Z,101269.37
2018-10-02T04:56:58.382Z,101268.66
2018-10-02T04:59:26.499Z,101260.37
2018-10-02T05:01:55.132Z,101265.97
2018-10-02T05:04:23.328Z,101263.90
2018-10-02T05:06:51.484Z,101266.75
2018-10-02T05:09:19.660Z,101271.61
2018-10-02T05:11:47.855Z,101273.88
2018-10-02T05:14:16.140Z,101275.34
2018-10-02T05:16:44.219Z,101280.00
2018-10-02T05:19:12.376Z,101283.87
2018-10-02T05:21:40.671Z,101280.75
2018-10-02T05:24:08.836Z,101281.22
2018-10-02T05:26:37.032Z,101283.02
2018-10-02T05:29:05.260Z,101290.12
2018-10-02T05:31:33.442Z,101285.36
2018-10-02T05:34:01.732Z,101284.61
2018-10-02T05:36:29.893Z,101274.84
2018-10-02T05:38:58.489Z,101272.52
2018-10-02T05:41:27.081Z,101269.40
2018-10-02T05:43:55.230Z,101275.17
2018-10-02T05:46:23.458Z,101279.72
2018-10-02T05:48:51.829Z,101274.84
2018-10-02T05:51:19.948Z,101282.27
2018-10-02T05:53:48.167Z,101294.47
2018-10-02T05:56:16.403Z,101288.83
2018-10-02T05:58:44.568Z,101286.66
2018-10-02T06:01:12.898Z,101291.98
2018-10-02T06:03:41.115Z,101301.83
2018-10-02T06:06:09.530Z,101299.31
2018-10-02T06:08:37.707Z,101300.50
2018-10-02T06:11:06.398Z,101303.66
2018-10-02T06:13:34.615Z,101310.02
2018-10-02T06:16:02.805Z,101316.95
2018-10-02T06:18:31.143Z,101320.53
2018-10-02T06:20:59.400Z,101327.27
2018-10-02T06:23:27.567Z,101329.06
2018-10-02T06:25:56.173Z,101325.26
2018-10-02T06:28:24.353Z,101326.09
2018-10-02T06:30:59.249Z,101328.58
2018-10-02T06:33:27.675Z,101318.81
2018-10-02T06:35:55.911Z,101317.97
2018-10-02T06:38:24.140Z,101312.00
2018-10-02T06:40:52.307Z,101308.48
2018-10-02T06:43:20.658Z,101304.73
2018-10-02T06:45:48.911Z,101313.09
2018-10-02T06:48:17.066Z,101312.38
2018-10-02T06:50:46.301Z,101310.91
2018-10-02T06:53:14.470Z,101300.38
2018-10-02T06:55:42.691Z,101309.59
2018-10-02T06:58:10.946Z,101300.48
2018-10-02T07:00:39.279Z,101304.69
2018-10-02T07:03:07.562Z,101295.51
2018-10-02T07:05:35.645Z,101293.75
2018-10-02T07:08:04.005Z,101289.73
2018-10-02T07:10:32.164Z,101291.81
2018-10-02T07:13:00.480Z,101296.91
2018-10-02T07:15:28.634Z,101287.31
2018-10-02T07:17:57.825Z,101285.28
2018-10-02T07:20:26.058Z,101284.89
2018-10-02T07:22:54.324Z,101286.75
2018-10-02T07:25:22.647Z,101281.33
2018-10-02T07:27:50.953Z,101278.52
2018-10-02T07:30:19.026Z,101276.14
2018-10-02T07:32:47.282Z,101272.81
2018-10-02T07:35:15.513Z,101274.98
2018-10-02T07:37:43.677Z,101274.53
2018-10-02T07:40:11.862Z,101273.78
2018-10-02T07:42:40.070Z,101274.58
2018-10-02T07:45:08.535Z,101272.47
2018-10-02T07:47:36.795Z,101275.76
2018-10-02T07:50:05.006Z,101275.11
2018-10-02T07:52:33.235Z,101276.23
2018-10-02T07:55:01.469Z,101277.95
2018-10-02T07:57:29.668Z,101276.36
2018-10-02T07:59:58.165Z,101271.59
2018-10-02T08:02:26.310Z,101268.95
2018-10-02T08:04:59.302Z,101271.40
2018-10-02T08:07:27.448Z,101275.30
2018-10-02T08:09:55.788Z,101274.08
2018-10-02T08:12:24.136Z,101272.48
2018-10-02T08:14:52.261Z,101273.51
2018-10-02T08:17:20.427Z,101262.16
2018-10-02T08:19:48.644Z,101257.04
2018-10-02T08:22:16.918Z,101251.09
2018-10-02T08:24:45.214Z,101256.41
2018-10-02T08:27:13.709Z,101244.04
2018-10-02T08:29:41.908Z,101247.25
2018-10-02T08:32:09.956Z,101240.31
2018-10-02T08:34:38.113Z,101229.56
2018-10-02T08:37:06.278Z,101233.25
2018-10-02T08:39:35.040Z,101231.04
2018-10-02T08:42:03.860Z,101216.66
2018-10-02T08:44:32.187Z,101218.14
2018-10-02T08:47:00.916Z,101210.42
2018-10-02T08:49:29.093Z,101208.50
2018-10-02T08:51:57.845Z,101209.44
2018-10-02T08:54:26.029Z,101196.48
2018-10-02T08:56:54.797Z,101195.08
2018-10-02T08:59:23.035Z,101180.69
2018-10-02T09:01:51.247Z,101190.60
2018-10-02T09:04:19.495Z,101188.84
2018-10-02T09:06:47.641Z,101179.70
2018-10-02T09:09:15.927Z,101191.00
2018-10-02T09:11:44.029Z,101187.52
2018-10-02T09:14:12.211Z,101191.69
2018-10-02T09:16:40.519Z,101188.66
2018-10-02T09:19:08.932Z,101190.03
2018-10-02T09:21:37.314Z,101184.55
2018-10-02T09:24:05.404Z,101174.69
2018-10-02T09:26:34.025Z,101173.45
2018-10-02T09:29:02.447Z,101166.10
2018-10-02T09:31:35.973Z,101174.86
2018-10-02T09:34:09.642Z,101173.78
2018-10-02T09:36:43.264Z,101159.23
2018-10-02T09:39:16.732Z,101158.30
2018-10-02T09:41:50.349Z,101158.06
2018-10-02T09:44:18.638Z,101155.65
2018-10-02T09:46:46.864Z,101148.16
2018-10-02T09:49:15.050Z,101146.48
2018-10-02T09:51:43.320Z,101143.23
2018-10-02T09:54:11.509Z,101134.04
2018-10-02T09:56:41.669Z,101130.61
2018-10-02T09:59:10.581Z,101129.41
2018-10-02T10:02:45.203Z,101129.84
2018-10-02T10:05:13.422Z,101121.72
2018-10-02T10:07:41.688Z,101133.52
2018-10-02T10:10:10.000Z,101124.34
2018-10-02T10:12:38.349Z,101119.04
2018-10-02T10:15:06.530Z,101110.84
2018-10-02T10:17:34.746Z,101112.89
2018-10-02T10:20:02.992Z,101108.88
2018-10-02T10:22:31.197Z,101114.84
2018-10-02T10:25:02.500Z,101110.36
2018-10-02T10:27:31.753Z,101106.80
2018-10-02T10:30:00.017Z,101108.66
2018-10-02T10:32:28.304Z,101109.62
2018-10-02T10:34:56.754Z,101103.67
2018-10-02T10:37:25.389Z,101105.48
2018-10-02T10:39:53.615Z,101118.80
2018-10-02T10:42:21.781Z,101110.70
2018-10-02T10:44:49.997Z,101093.55
2018-10-02T10:47:18.215Z,101088.19
2018-10-02T10:49:46.397Z,101084.66
2018-10-02T10:52:14.532Z,101083.63
2018-10-02T10:54:52.743Z,101084.44
2018-10-02T10:57:22.843Z,101075.16
2018-10-02T10:59:50.986Z,101083.55
2018-10-02T11:02:23.956Z,101078.84
2018-10-02T11:04:53.183Z,101079.91
2018-10-02T11:07:21.398Z,101070.66
2018-10-02T11:09:49.527Z,101060.67
2018-10-02T11:12:17.693Z,101055.69
2018-10-02T11:14:45.872Z,101066.69
2018-10-02T11:17:14.123Z,101058.58
2018-10-02T11:19:42.488Z,101062.23
2018-10-02T11:22:10.659Z,101063.84
2018-10-02T11:24:39.249Z,101057.52
2018-10-02T11:27:07.436Z,101064.06
2018-10-02T11:29:35.679Z,101063.87
2018-10-02T11:32:03.872Z,101060.02
2018-10-02T11:34:31.984Z,101056.59
2018-10-02T11:37:00.122Z,101052.80
2018-10-02T11:39:28.374Z,101052.15
2018-10-02T11:41:56.614Z,101040.44
2018-10-02T11:44:24.817Z,101041.97
2018-10-02T11:46:53.224Z,101030.03
2018-10-02T11:49:22.145Z,101022.17
2018-10-02T11:51:50.224Z,101012.94
2018-10-02T11:54:18.457Z,100999.84
2018-10-02T11:56:46.690Z,100991.19
2018-10-02T11:59:14.881Z,100980.32
2018-10-02T12:01:43.692Z,100980.03
2018-10-02T12:04:11.884Z,100967.16
2018-10-02T12:06:40.310Z,100966.52
2018-10-02T12:09:08.895Z,100959.70
2018-10-02T12:11:37.189Z,100950.14
2018-10-02T12:14:06.324Z,100953.42
2018-10-02T12:16:34.378Z,100943.76
2018-10-02T12:19:02.625Z,100929.60
2018-10-02T12:21:30.911Z,100936.33
2018-10-02T12:23:59.165Z,100929.78
2018-10-02T12:26:27.391Z,100929.42
2018-10-02T12:28:55.569Z,100917.97
2018-10-02T12:31:23.916Z,100924.72
2018-10-02T12:33:52.126Z,100920.69
2018-10-02T12:36:20.456Z,100923.94
2018-10-02T12:38:48.999Z,100913.95
2018-10-02T12:41:17.174Z,100911.75
2018-10-02T12:43:45.979Z,100898.91
2018-10-02T12:46:14.324Z,100886.97
2018-10-02T12:48:42.517Z,100874.84
2018-10-02T12:51:10.791Z,100887.55
2018-10-02T12:53:39.101Z,100882.77
2018-10-02T12:56:07.310Z,100876.63
2018-10-02T12:58:35.640Z,100867.88
2018-10-02T13:01:03.847Z,100850.84
2018-10-02T13:03:32.060Z,100861.07
2018-10-02T13:06:00.329Z,100857.98
2018-10-02T13:08:28.548Z,100845.67
2018-10-02T13:10:58.180Z,100854.84
2018-10-02T13:13:26.513Z,100853.17
2018-10-02T13:15:54.778Z,100837.78
2018-10-02T13:18:23.156Z,100833.97
2018-10-02T13:20:51.503Z,100829.11
2018-10-02T13:23:19.785Z,100836.39
2018-10-02T13:25:48.055Z,100820.03
2018-10-02T13:28:16.270Z,100824.66
2018-10-02T13:30:45.247Z,100822.34
2018-10-02T13:33:13.734Z,100831.30
2018-10-02T13:35:41.969Z,100827.95
2018-10-02T13:38:10.467Z,100829.80
2018-10-02T13:40:39.877Z,100824.05
2018-10-02T13:43:08.803Z,100827.82
2018-10-02T13:45:37.168Z,100826.09
2018-10-02T13:48:05.477Z,100831.52
2018-10-02T13:50:33.820Z,100822.08
2018-10-02T13:53:02.026Z,100828.62
2018-10-02T13:55:31.183Z,100818.28
2018-10-02T13:57:59.390Z,100806.08
2018-10-02T14:00:27.575Z,100803.92
2018-10-02T14:02:55.731Z,100788.95
2018-10-02T14:05:23.946Z,100785.73
2018-10-02T14:07:52.199Z,100777.89
2018-10-02T14:10:21.052Z,100782.09
2018-10-02T14:12:49.264Z,100762.97
2018-10-02T14:15:17.614Z,100772.85
2018-10-02T14:17:45.845Z,100771.73
2018-10-02T14:20:14.287Z,100769.86
2018-10-02T14:22:42.688Z,100762.64
2018-10-02T14:25:10.916Z,100744.05
2018-10-02T14:27:39.094Z,100739.39
2018-10-02T14:30:07.413Z,100745.52
2018-10-02T14:32:35.642Z,100742.26
2018-10-02T14:35:04.487Z,100732.42
2018-10-02T14:37:32.971Z,100734.30
2018-10-02T14:40:01.203Z,100732.73
2018-10-02T14:42:30.333Z,100726.25
2018-10-02T14:44:58.503Z,100732.73
2018-10-02T14:47:26.877Z,100720.36
2018-10-02T14:49:55.693Z,100704.78
2018-10-02T14:52:24.465Z,100704.55
2018-10-02T14:54:52.594Z,100692.52
2018-10-02T14:57:20.805Z,100704.66
2018-10-02T14:59:49.062Z,100706.19
2018-10-02T15:02:17.243Z,100704.77
2018-10-02T15:04:45.564Z,100704.87
2018-10-02T15:07:14.833Z,100697.34
2018-10-02T15:09:43.235Z,100710.65
2018-10-02T15:12:11.398Z,100709.28
2018-10-02T15:14:39.557Z,100699.33
2018-10-02T15:17:07.828Z,100698.66
2018-10-02T15:19:36.237Z,100698.05
2018-10-02T15:22:04.869Z,100691.80
2018-10-02T15:24:33.708Z,100686.64
2018-10-02T15:27:03.500Z,100682.48
2018-10-02T15:29:32.277Z,100664.70
2018-10-02T15:32:00.538Z,100663.56
2018-10-02T15:34:28.670Z,100674.73
2018-10-02T15:36:56.832Z,100667.64
2018-10-02T15:39:24.967Z,100667.47
2018-10-02T15:41:53.223Z,100659.66
2018-10-02T15:44:21.566Z,100657.28
2018-10-02T15:46:49.803Z,100653.64
2018-10-02T15:49:18.047Z,100650.43
2018-10-02T15:51:46.268Z,100652.23
2018-10-02T15:54:14.617Z,100652.59
2018-10-02T15:56:42.790Z,100649.23
2018-10-02T15:59:11.104Z,100651.75
2018-10-02T16:01:39.344Z,100648.70
2018-10-02T16:04:08.653Z,100644.53
2018-10-02T16:06:36.831Z,100637.53
2018-10-02T16:09:06.461Z,100633.39
2018-10-02T16:11:34.724Z,100645.23
2018-10-02T16:14:02.924Z,100643.16
2018-10-02T16:16:38.573Z,100620.52
2018-10-02T16:19:06.935Z,100630.79
2018-10-02T16:21:38.966Z,100630.62
2018-10-02T16:24:08.091Z,100633.82
2018-10-02T16:26:36.617Z,100648.70
2018-10-02T16:29:04.829Z,100655.47
2018-10-02T16:31:33.041Z,100650.78
2018-10-02T16:34:01.339Z,100657.69
2018-10-02T16:36:29.537Z,100658.92
2018-10-02T16:38:57.729Z,100655.70
2018-10-02T16:41:26.073Z,100649.03
2018-10-02T16:43:54.226Z,100645.95
2018-10-02T16:46:22.448Z,100649.12
2018-10-02T16:48:51.244Z,100643.92
2018-10-02T16:51:19.534Z,100645.83
2018-10-02T16:53:47.882Z,100644.81
2018-10-02T16:56:16.169Z,100633.89
2018-10-02T16:58:44.457Z,100630.16
2018-10-02T17:01:12.832Z,100625.36
2018-10-02T17:03:41.135Z,100627.34
2018-10-02T17:06:14.474Z,100623.32
2018-10-02T17:08:45.894Z,100625.84
2018-10-02T17:11:15.773Z,100620.98
2018-10-02T17:13:46.827Z,100625.50
2018-10-02T17:16:15.842Z,100626.77
2018-10-02T17:18:45.457Z,100625.40
2018-10-02T17:21:20.413Z,100613.95
2018-10-02T17:23:48.770Z,100623.16
2018-10-02T17:26:17.050Z,100630.07
2018-10-02T17:28:45.388Z,100625.85
2018-10-02T17:31:22.590Z,100624.98
2018-10-02T17:33:52.159Z,100618.81
2018-10-02T17:36:20.375Z,100625.82
2018-10-02T17:38:48.582Z,100628.41
2018-10-02T17:41:16.922Z,100637.86
2018-10-02T17:43:45.078Z,100641.65
2018-10-02T17:46:13.385Z,100638.28
2018-10-02T17:49:09.623Z,100646.22
2018-10-02T17:51:38.194Z,100644.37
2018-10-02T17:54:06.676Z,100646.77
2018-10-02T17:56:34.911Z,100642.55
2018-10-02T17:59:03.186Z,100646.09
2018-10-02T18:01:31.591Z,100652.64
2018-10-02T18:03:59.802Z,100650.92
2018-10-02T18:06:29.899Z,100652.16
2018-10-02T18:08:58.554Z,100644.80
2018-10-02T18:11:26.988Z,100647.91
2018-10-02T18:13:55.259Z,100646.97
2018-10-02T18:16:23.872Z,100642.42
2018-10-02T18:18:52.194Z,100652.38
2018-10-02T18:21:21.166Z,100652.90
2018-10-02T18:23:50.430Z,100653.77
2018-10-02T18:26:18.751Z,100650.14
2018-10-02T18:28:47.661Z,100653.23
2018-10-02T18:31:16.604Z,100641.78
2018-10-02T18:33:46.778Z,100646.38
2018-10-02T18:36:15.029Z,100647.20
2018-10-02T18:38:47.499Z,100655.82
2018-10-02T18:41:16.501Z,100650.47
2018-10-02T18:43:44.870Z,100649.40
2018-10-02T18:46:13.529Z,100651.94
2018-10-02T18:48:42.097Z,100649.17
2018-10-02T18:51:10.476Z,100646.45
2018-10-02T18:53:38.804Z,100654.53
2018-10-02T18:56:07.147Z,100658.39
2018-10-02T18:58:37.640Z,100648.91
2018-10-02T19:01:06.258Z,100652.94
2018-10-02T19:03:34.618Z,100652.14
2018-10-02T19:06:03.048Z,100659.26
2018-10-02T19:08:36.954Z,100671.52
2018-10-02T19:11:10.659Z,100667.89
2018-10-02T19:13:39.016Z,100659.48
2018-10-02T19:16:12.764Z,100658.64
2018-10-02T19:18:41.754Z,100659.70
2018-10-02T19:21:09.988Z,100657.14
2018-10-02T19:23:38.230Z,100650.80
2018-10-02T19:26:09.834Z,100653.29
2018-10-02T19:28:38.090Z,100662.03
2018-10-02T19:31:12.404Z,100656.05
2018-10-02T19:33:40.786Z,100659.66
2018-10-02T19:36:09.153Z,100657.48
2018-10-02T19:38:42.838Z,100645.14
2018-10-02T19:41:11.554Z,100638.05
2018-10-02T19:43:46.478Z,100642.09
2018-10-02T19:46:26.328Z,100640.00
2018-10-02T19:48:54.913Z,100640.85
2018-10-02T19:51:28.616Z,100644.23
2018-10-02T19:53:57.763Z,100638.83
2018-10-02T19:56:25.966Z,100634.96
2018-10-02T19:58:54.272Z,100642.23
2018-10-02T20:01:27.037Z,100639.77
2018-10-02T20:03:55.286Z,100629.88
2018-10-02T20:06:23.558Z,100645.47
2018-10-02T20:08:52.330Z,100641.23
2018-10-02T20:11:20.823Z,100643.20
2018-10-02T20:13:49.540Z,100638.77
2018-10-02T20:16:21.342Z,100639.42
2018-10-02T20:18:49.643Z,100640.28
2018-10-02T20:21:17.963Z,100637.67
2018-10-02T20:23:46.194Z,100634.89
2018-10-02T20:26:14.466Z,100639.12
2018-10-02T20:28:44.214Z,100636.19
2018-10-02T20:31:13.075Z,100612.63
2018-10-02T20:33:41.516Z,100631.92
2018-10-02T20:36:09.975Z,100637.91
2018-10-02T20:38:38.453Z,100647.88
2018-10-02T20:41:06.834Z,100639.78
2018-10-02T20:43:35.173Z,100652.08
2018-10-02T20:46:03.576Z,100657.91
2018-10-02T20:48:31.812Z,100650.53
2018-10-02T20:51:00.095Z,100657.27
2018-10-02T20:53:28.390Z,100672.14
2018-10-02T20:55:56.918Z,100656.55
2018-10-02T20:58:25.181Z,100667.42
2018-10-02T21:00:53.412Z,100669.54
2018-10-02T21:03:22.446Z,100675.81
2018-10-02T21:05:51.242Z,100672.22
2018-10-02T21:08:19.458Z,100676.97
2018-10-02T21:10:48.081Z,100673.73
2018-10-02T21:13:16.524Z,100667.14
2018-10-02T21:15:44.820Z,100667.14
2018-10-02T21:18:12.905Z,100668.38
2018-10-02T21:20:41.086Z,100655.30
2018-10-02T21:23:09.708Z,100647.64
2018-10-02T21:25:38.579Z,100646.87
2018-10-02T21:28:06.913Z,100649.67
2018-10-02T21:30:35.315Z,100642.69
2018-10-02T21:33:03.587Z,100642.75
2018-10-02T21:35:31.756Z,100635.38
2018-10-02T21:37:59.982Z,100630.89
2018-10-02T21:40:28.401Z,100626.78
2018-10-02T21:42:56.578Z,100647.80
2018-10-02T21:45:24.771Z,100654.78
2018-10-02T21:47:53.034Z,100647.70
2018-10-02T21:50:26.718Z,100639.46
2018-10-02T21:52:55.709Z,100637.23
2018-10-02T21:55:25.428Z,100629.02
2018-10-02T21:57:55.892Z,100626.14
2018-10-02T22:00:24.148Z,100624.11
2018-10-02T22:02:52.449Z,100631.70
2018-10-02T22:05:22.256Z,100638.04
2018-10-02T22:07:50.466Z,100630.17
2018-10-02T22:10:18.626Z,100631.75
2018-10-02T22:12:53.694Z,100633.43
2018-10-02T22:15:21.917Z,100632.95
2018-10-02T22:17:50.173Z,100633.06
2018-10-02T22:20:18.391Z,100635.75
2018-10-02T22:22:46.679Z,100637.90
2018-10-02T22:25:14.926Z,100637.11
2018-10-02T22:27:43.176Z,100632.22
2018-10-02T22:30:18.264Z,100627.16
2018-10-02T22:32:46.450Z,100631.06
2018-10-02T22:35:21.390Z,100633.52
2018-10-02T22:37:50.212Z,100630.25
2018-10-02T22:40:18.472Z,100627.31
2018-10-02T22:42:53.777Z,100618.58
2018-10-02T22:45:21.976Z,100623.61
2018-10-02T22:47:50.130Z,100627.14
2018-10-02T22:50:18.336Z,100630.84
2018-10-02T22:52:46.510Z,100636.61
2018-10-02T22:55:14.704Z,100618.78
2018-10-02T22:57:42.970Z,100622.11
2018-10-02T23:00:11.122Z,100621.30
2018-10-02T23:02:39.326Z,100629.17
2018-10-02T23:05:07.477Z,100620.64
2018-10-02T23:07:35.616Z,100615.97
2018-10-02T23:10:03.737Z,100614.95
2018-10-02T23:12:32.013Z,100618.78
2018-10-02T23:15:00.228Z,100619.00
2018-10-02T23:17:28.476Z,100619.93
2018-10-02T23:19:56.855Z,100621.17
2018-10-02T23:22:24.975Z,100624.53
2018-10-02T23:24:53.845Z,100620.29
2018-10-02T23:27:21.997Z,100621.06
2018-10-02T23:29:50.305Z,100626.92
2018-10-02T23:32:18.489Z,100625.62
2018-10-02T23:34:46.879Z,100628.62
2018-10-02T23:37:15.081Z,100637.67
2018-10-02T23:39:43.262Z,100632.12
2018-10-02T23:42:11.461Z,100635.95
2018-10-02T23:44:39.645Z,100638.31
2018-10-02T23:47:07.784Z,100641.34
2018-10-02T23:49:36.045Z,100647.98
2018-10-02T23:52:04.283Z,100653.27
2018-10-02T23:54:32.752Z,100650.61
2018-10-02T23:59:28.424Z,100645.61
